RAM24E GMMN-LFPG
Flight info
| Callsign | RAM24E |
|---|---|
| Flight time | 2h 15m |
| Altitude | 40000 |
| Route | TOLSI UG5 KORIS DCT XULIM DCT VJF DCT SVL DCT HIJ DCT RUSEM DCT SOTUK DCT USOKO DCT TLD DCT SIE DCT EDIGO DCT DGO N858 ABRIX DCT CNA/N0496F300 DCT POI DCT PEPAX UT182 KEPER |
| Aircraft | B789/H-SDE1E2E3FGHIJ2J3J4J5M1RWXY/LB1D1 |
Departure
| Time | 2026-04-30 18:36 |
|---|---|
| Airport | Mohammed V International Airport (GMMN) |
Arrival
| Time | 2026-04-30 20:51 |
|---|---|
| Airport | Charles de Gaulle International Airport (LFPG) |
| Time | Latitude | Longitude | Altitude | Speed | Heading |
|---|---|---|---|---|---|
| 2026-04-30 18:24 | 33.37029 | -7.58161 | 658 ft | 0 kts | 75° |
| 2026-04-30 18:26 | 33.37028 | -7.58165 | 658 ft | 1 kts | 75° |
| 2026-04-30 18:27 | 33.37025 | -7.58176 | 657 ft | 1 kts | 75° |
| 2026-04-30 18:27 | 33.37021 | -7.58195 | 658 ft | 3 kts | 75° |
| 2026-04-30 18:28 | 33.37032 | -7.58247 | 655 ft | 3 kts | 154° |
| 2026-04-30 18:28 | 33.37036 | -7.58249 | 655 ft | 0 kts | 168° |
| 2026-04-30 18:29 | 33.37035 | -7.58249 | 655 ft | 0 kts | 168° |
| 2026-04-30 18:30 | 33.37014 | -7.58243 | 658 ft | 3 kts | 163° |
| 2026-04-30 18:30 | 33.36945 | -7.58251 | 658 ft | 7 kts | 227° |
| 2026-04-30 18:31 | 33.36926 | -7.58318 | 658 ft | 11 kts | 254° |
| 2026-04-30 18:31 | 33.36881 | -7.58456 | 658 ft | 1 kts | 210° |
| 2026-04-30 18:32 | 33.36774 | -7.58437 | 658 ft | 19 kts | 163° |
| 2026-04-30 18:32 | 33.36601 | -7.58377 | 658 ft | 33 kts | 163° |
| 2026-04-30 18:32 | 33.35995 | -7.58170 | 658 ft | 58 kts | 164° |
| 2026-04-30 18:33 | 33.35616 | -7.58042 | 657 ft | 36 kts | 166° |
| 2026-04-30 18:33 | 33.35491 | -7.57999 | 658 ft | 12 kts | 164° |
| 2026-04-30 18:33 | 33.35386 | -7.57962 | 658 ft | 20 kts | 163° |
| 2026-04-30 18:34 | 33.35292 | -7.57955 | 658 ft | 8 kts | 204° |
| 2026-04-30 18:34 | 33.35211 | -7.58189 | 659 ft | 23 kts | 255° |
| 2026-04-30 18:34 | 33.35247 | -7.58273 | 659 ft | 13 kts | 336° |
| 2026-04-30 18:35 | 33.35365 | -7.58311 | 657 ft | 30 kts | 343° |
| 2026-04-30 18:35 | 33.35825 | -7.58469 | 650 ft | 107 kts | 344° |
| 2026-04-30 18:35 | 33.36770 | -7.58795 | 667 ft | 172 kts | 344° |
| 2026-04-30 18:36 | 33.39277 | -7.59794 | 1937 ft | 209 kts | 344° |
| 2026-04-30 18:36 | 33.40602 | -7.60089 | 2685 ft | 187 kts | 359° |
| 2026-04-30 18:36 | 33.43159 | -7.59111 | 4233 ft | 195 kts | 27° |
| 2026-04-30 18:37 | 33.44324 | -7.58206 | 4858 ft | 212 kts | 34° |
| 2026-04-30 18:37 | 33.45521 | -7.57153 | 5632 ft | 209 kts | 42° |
| 2026-04-30 18:37 | 33.46461 | -7.55794 | 6224 ft | 222 kts | 51° |
| 2026-04-30 18:37 | 33.47623 | -7.54571 | 6917 ft | 226 kts | 38° |
| 2026-04-30 18:38 | 33.48626 | -7.53026 | 6598 ft | 245 kts | 70° |
| 2026-04-30 18:38 | 33.49003 | -7.50693 | 5614 ft | 312 kts | 75° |
| 2026-04-30 18:38 | 33.50097 | -7.48570 | 6902 ft | 299 kts | 44° |
| 2026-04-30 18:38 | 33.51799 | -7.46999 | 7426 ft | 320 kts | 33° |
| 2026-04-30 18:39 | 33.53712 | -7.45429 | 7782 ft | 346 kts | 36° |
| 2026-04-30 18:39 | 33.55681 | -7.43606 | 8075 ft | 370 kts | 35° |
| 2026-04-30 18:39 | 33.57958 | -7.41995 | 8331 ft | 392 kts | 21° |
| 2026-04-30 18:39 | 33.60638 | -7.41098 | 8802 ft | 402 kts | 10° |
| 2026-04-30 18:40 | 33.63408 | -7.40588 | 9663 ft | 405 kts | 5° |
| 2026-04-30 18:40 | 33.66229 | -7.40222 | 10352 ft | 410 kts | 5° |
| 2026-04-30 18:40 | 33.69068 | -7.39726 | 11082 ft | 414 kts | 8° |
| 2026-04-30 18:40 | 33.71914 | -7.39099 | 11797 ft | 418 kts | 9° |
| 2026-04-30 18:41 | 33.74797 | -7.38511 | 12484 ft | 422 kts | 7° |
| 2026-04-30 18:41 | 33.77713 | -7.37984 | 13187 ft | 426 kts | 7° |
| 2026-04-30 18:41 | 33.80652 | -7.37441 | 13892 ft | 430 kts | 7° |
| 2026-04-30 18:41 | 33.83614 | -7.36857 | 14509 ft | 433 kts | 8° |
| 2026-04-30 18:42 | 33.86597 | -7.36269 | 15154 ft | 436 kts | 7° |
| 2026-04-30 18:42 | 33.92632 | -7.35117 | 16368 ft | 442 kts | 7° |
| 2026-04-30 18:42 | 33.95681 | -7.34527 | 16946 ft | 445 kts | 7° |
| 2026-04-30 18:45 | 34.26281 | -7.22436 | 20931 ft | 492 kts | 25° |
| 2026-04-30 18:45 | 34.29335 | -7.20552 | 21258 ft | 495 kts | 25° |
| 2026-04-30 18:45 | 34.32407 | -7.18649 | 21581 ft | 498 kts | 25° |
| 2026-04-30 18:46 | 34.35500 | -7.16736 | 21890 ft | 501 kts | 25° |
| 2026-04-30 18:46 | 34.38611 | -7.14814 | 22215 ft | 503 kts | 25° |
| 2026-04-30 18:46 | 34.41737 | -7.12879 | 22536 ft | 506 kts | 25° |
| 2026-04-30 18:46 | 34.44878 | -7.10931 | 22802 ft | 509 kts | 25° |
| 2026-04-30 18:47 | 34.48036 | -7.08972 | 23089 ft | 511 kts | 25° |
| 2026-04-30 18:47 | 34.51207 | -7.07004 | 23371 ft | 514 kts | 25° |
| 2026-04-30 18:47 | 34.54398 | -7.05022 | 23625 ft | 516 kts | 25° |
| 2026-04-30 18:47 | 34.57600 | -7.03031 | 23854 ft | 518 kts | 25° |
| 2026-04-30 18:48 | 34.60814 | -7.01030 | 24101 ft | 520 kts | 25° |
| 2026-04-30 18:48 | 34.64045 | -6.99042 | 24338 ft | 522 kts | 25° |
| 2026-04-30 18:48 | 34.67301 | -6.97070 | 24543 ft | 524 kts | 25° |
| 2026-04-30 18:48 | 34.70560 | -6.95083 | 24766 ft | 525 kts | 25° |
| 2026-04-30 18:49 | 34.73829 | -6.93067 | 24883 ft | 529 kts | 25° |
| 2026-04-30 18:49 | 34.77114 | -6.91041 | 25163 ft | 529 kts | 25° |
| 2026-04-30 18:49 | 34.80393 | -6.89031 | 25464 ft | 528 kts | 25° |
| 2026-04-30 18:49 | 34.83674 | -6.87019 | 25765 ft | 528 kts | 25° |
| 2026-04-30 18:50 | 34.86947 | -6.85002 | 26070 ft | 527 kts | 25° |
| 2026-04-30 18:50 | 34.90218 | -6.82982 | 26391 ft | 527 kts | 25° |
| 2026-04-30 18:50 | 34.93484 | -6.80968 | 26690 ft | 526 kts | 25° |
| 2026-04-30 18:50 | 34.96755 | -6.78952 | 26998 ft | 526 kts | 25° |
| 2026-04-30 18:51 | 35.00015 | -6.76938 | 27326 ft | 526 kts | 25° |
| 2026-04-30 18:51 | 35.03279 | -6.74918 | 27640 ft | 525 kts | 25° |
| 2026-04-30 18:51 | 35.06534 | -6.72903 | 27991 ft | 525 kts | 26° |
| 2026-04-30 18:51 | 35.09787 | -6.70888 | 28331 ft | 524 kts | 26° |
| 2026-04-30 18:52 | 35.13036 | -6.68874 | 28673 ft | 524 kts | 26° |
| 2026-04-30 18:52 | 35.16283 | -6.66858 | 29012 ft | 523 kts | 26° |
| 2026-04-30 18:52 | 35.19525 | -6.64844 | 29361 ft | 523 kts | 26° |
| 2026-04-30 18:52 | 35.22766 | -6.62830 | 29703 ft | 522 kts | 26° |
| 2026-04-30 18:53 | 35.26007 | -6.60813 | 30042 ft | 522 kts | 26° |
| 2026-04-30 18:53 | 35.29241 | -6.58799 | 30373 ft | 521 kts | 26° |
| 2026-04-30 18:53 | 35.32467 | -6.56787 | 30673 ft | 520 kts | 26° |
| 2026-04-30 18:53 | 35.35693 | -6.54774 | 30993 ft | 519 kts | 26° |
| 2026-04-30 18:54 | 35.38904 | -6.52768 | 31317 ft | 518 kts | 26° |
| 2026-04-30 18:54 | 35.42115 | -6.50761 | 31616 ft | 517 kts | 26° |
| 2026-04-30 18:54 | 35.45319 | -6.48756 | 31944 ft | 517 kts | 26° |
| 2026-04-30 18:54 | 35.48500 | -6.46708 | 32270 ft | 516 kts | 27° |
| 2026-04-30 18:55 | 35.51652 | -6.44609 | 32574 ft | 515 kts | 27° |
| 2026-04-30 18:55 | 35.57932 | -6.40515 | 33206 ft | 514 kts | 26° |
| 2026-04-30 18:55 | 35.61093 | -6.38467 | 33514 ft | 513 kts | 27° |
| 2026-04-30 18:56 | 35.67376 | -6.34334 | 34101 ft | 512 kts | 27° |
| 2026-04-30 18:56 | 35.70519 | -6.32281 | 34359 ft | 511 kts | 27° |
| 2026-04-30 18:56 | 35.73659 | -6.30230 | 34638 ft | 510 kts | 27° |
| 2026-04-30 18:57 | 35.79928 | -6.26135 | 35141 ft | 509 kts | 26° |
| 2026-04-30 18:57 | 35.83057 | -6.24102 | 35376 ft | 509 kts | 26° |
| 2026-04-30 18:57 | 35.86185 | -6.22069 | 35644 ft | 508 kts | 26° |
| 2026-04-30 18:58 | 35.92444 | -6.18045 | 36130 ft | 507 kts | 26° |
| 2026-04-30 18:58 | 35.95565 | -6.16025 | 36378 ft | 506 kts | 26° |
| 2026-04-30 18:58 | 35.98682 | -6.13996 | 36592 ft | 506 kts | 26° |
| 2026-04-30 18:59 | 36.04909 | -6.09953 | 37059 ft | 505 kts | 26° |
| 2026-04-30 19:00 | 36.14233 | -6.03882 | 37680 ft | 505 kts | 26° |
| 2026-04-30 19:00 | 36.17337 | -6.01859 | 37899 ft | 504 kts | 26° |
| 2026-04-30 19:00 | 36.23613 | -5.98032 | 38303 ft | 500 kts | 14° |
| 2026-04-30 19:01 | 36.30388 | -5.96400 | 38619 ft | 496 kts | 5° |
| 2026-04-30 19:01 | 36.33808 | -5.95799 | 38809 ft | 496 kts | 5° |
| 2026-04-30 19:02 | 36.40640 | -5.94595 | 39090 ft | 496 kts | 5° |
| 2026-04-30 19:04 | 36.67939 | -5.89731 | 40073 ft | 501 kts | 5° |
| 2026-04-30 19:05 | 36.81908 | -5.87230 | 40083 ft | 513 kts | 6° |
| 2026-04-30 19:06 | 36.96175 | -5.84664 | 40076 ft | 521 kts | 6° |
| 2026-04-30 19:06 | 37.06934 | -5.82724 | 40057 ft | 521 kts | 6° |
| 2026-04-30 19:07 | 37.17683 | -5.80780 | 40059 ft | 520 kts | 6° |
| 2026-04-30 19:08 | 37.31988 | -5.78184 | 40056 ft | 519 kts | 6° |
| 2026-04-30 19:09 | 37.42679 | -5.75964 | 40082 ft | 521 kts | 17° |
| 2026-04-30 19:09 | 37.49342 | -5.72263 | 40065 ft | 526 kts | 24° |
| 2026-04-30 19:10 | 37.62534 | -5.64266 | 40066 ft | 526 kts | 24° |
| 2026-04-30 19:11 | 37.72425 | -5.58250 | 40065 ft | 526 kts | 24° |
| 2026-04-30 19:12 | 37.79019 | -5.54235 | 40068 ft | 525 kts | 24° |
| 2026-04-30 19:12 | 37.84489 | -5.50895 | 40070 ft | 526 kts | 24° |
| 2026-04-30 19:13 | 37.97642 | -5.42846 | 40072 ft | 525 kts | 25° |
| 2026-04-30 19:14 | 38.04216 | -5.38811 | 40074 ft | 525 kts | 25° |
| 2026-04-30 19:14 | 38.10791 | -5.34766 | 40073 ft | 525 kts | 25° |
| 2026-04-30 19:15 | 38.17361 | -5.30717 | 40073 ft | 525 kts | 25° |
| 2026-04-30 19:15 | 38.27215 | -5.24628 | 40075 ft | 525 kts | 25° |
| 2026-04-30 19:16 | 38.33744 | -5.20584 | 40075 ft | 525 kts | 25° |
| 2026-04-30 19:17 | 38.43640 | -5.14438 | 40077 ft | 525 kts | 25° |
| 2026-04-30 19:17 | 38.53559 | -5.08566 | 40073 ft | 523 kts | 20° |
| 2026-04-30 19:18 | 38.63716 | -5.03376 | 40080 ft | 524 kts | 21° |
| 2026-04-30 19:19 | 38.70488 | -4.99907 | 40077 ft | 524 kts | 20° |
| 2026-04-30 19:19 | 38.80604 | -4.94707 | 40071 ft | 524 kts | 21° |
| 2026-04-30 19:20 | 38.87377 | -4.91219 | 40075 ft | 525 kts | 21° |
| 2026-04-30 19:21 | 38.97533 | -4.85973 | 40075 ft | 524 kts | 21° |
| 2026-04-30 19:22 | 39.11064 | -4.78959 | 40076 ft | 525 kts | 21° |
| 2026-04-30 19:23 | 39.31338 | -4.68397 | 40082 ft | 523 kts | 21° |
| 2026-04-30 19:24 | 39.41469 | -4.63094 | 40084 ft | 523 kts | 21° |
| 2026-04-30 19:25 | 39.58323 | -4.54236 | 40087 ft | 522 kts | 21° |
| 2026-04-30 19:26 | 39.71791 | -4.47124 | 40091 ft | 523 kts | 21° |
| 2026-04-30 19:27 | 39.81900 | -4.41765 | 40084 ft | 523 kts | 21° |
| 2026-04-30 19:28 | 39.92000 | -4.36382 | 40085 ft | 523 kts | 21° |
| 2026-04-30 19:29 | 40.05307 | -4.28657 | 40079 ft | 523 kts | 24° |
| 2026-04-30 19:30 | 40.18479 | -4.20605 | 40080 ft | 522 kts | 24° |
| 2026-04-30 19:31 | 40.31582 | -4.12568 | 40083 ft | 522 kts | 25° |
| 2026-04-30 19:31 | 40.41299 | -4.06588 | 40089 ft | 521 kts | 25° |
| 2026-04-30 19:32 | 40.47853 | -4.02542 | 40092 ft | 521 kts | 25° |
| 2026-04-30 19:32 | 40.54413 | -3.98484 | 40099 ft | 522 kts | 25° |
| 2026-04-30 19:33 | 40.60981 | -3.94411 | 40107 ft | 521 kts | 25° |
| 2026-04-30 19:33 | 40.67539 | -3.90336 | 40111 ft | 521 kts | 25° |
| 2026-04-30 19:34 | 40.74092 | -3.86255 | 40119 ft | 521 kts | 25° |
| 2026-04-30 19:35 | 40.83947 | -3.80101 | 40131 ft | 526 kts | 25° |
| 2026-04-30 19:35 | 40.90577 | -3.75950 | 40125 ft | 529 kts | 25° |
| 2026-04-30 19:36 | 40.97224 | -3.71778 | 40129 ft | 528 kts | 25° |
| 2026-04-30 19:36 | 41.07159 | -3.65525 | 40122 ft | 527 kts | 25° |
| 2026-04-30 19:37 | 41.13774 | -3.61350 | 40119 ft | 526 kts | 25° |
| 2026-04-30 19:37 | 41.20513 | -3.57581 | 40116 ft | 526 kts | 22° |
| 2026-04-30 19:38 | 41.27266 | -3.53862 | 40116 ft | 525 kts | 21° |
| 2026-04-30 19:38 | 41.34028 | -3.50187 | 40116 ft | 525 kts | 21° |
| 2026-04-30 19:39 | 41.40778 | -3.46475 | 40114 ft | 524 kts | 21° |
| 2026-04-30 19:39 | 41.47523 | -3.42778 | 40110 ft | 524 kts | 21° |
| 2026-04-30 19:40 | 41.54256 | -3.39068 | 40109 ft | 523 kts | 21° |
| 2026-04-30 19:40 | 41.60995 | -3.35349 | 40111 ft | 524 kts | 21° |
| 2026-04-30 19:41 | 41.67726 | -3.31625 | 40109 ft | 524 kts | 21° |
| 2026-04-30 19:41 | 41.74458 | -3.27892 | 40110 ft | 524 kts | 21° |
| 2026-04-30 19:42 | 41.81190 | -3.24152 | 40111 ft | 524 kts | 21° |
| 2026-04-30 19:42 | 41.87873 | -3.20429 | 40118 ft | 524 kts | 21° |
| 2026-04-30 19:43 | 41.94596 | -3.16675 | 40126 ft | 523 kts | 21° |
| 2026-04-30 19:44 | 42.04677 | -3.11031 | 40126 ft | 523 kts | 21° |
| 2026-04-30 19:44 | 42.11397 | -3.07258 | 40133 ft | 523 kts | 21° |
| 2026-04-30 19:45 | 42.18112 | -3.03479 | 40128 ft | 523 kts | 21° |
| 2026-04-30 19:45 | 42.24821 | -2.99694 | 40130 ft | 523 kts | 21° |
| 2026-04-30 19:46 | 42.31533 | -2.95900 | 40135 ft | 523 kts | 21° |
| 2026-04-30 19:46 | 42.38242 | -2.92098 | 40132 ft | 522 kts | 21° |
| 2026-04-30 19:47 | 42.44942 | -2.88277 | 40132 ft | 522 kts | 24° |
| 2026-04-30 19:47 | 42.51336 | -2.83557 | 40130 ft | 525 kts | 28° |
| 2026-04-30 19:48 | 42.57710 | -2.78726 | 40136 ft | 524 kts | 27° |
| 2026-04-30 19:48 | 42.64084 | -2.73916 | 40149 ft | 524 kts | 28° |
| 2026-04-30 19:49 | 42.70445 | -2.69080 | 40157 ft | 525 kts | 27° |
| 2026-04-30 19:49 | 42.80010 | -2.61806 | 40164 ft | 525 kts | 27° |
| 2026-04-30 19:50 | 42.86376 | -2.56948 | 40165 ft | 524 kts | 27° |
| 2026-04-30 19:50 | 42.92736 | -2.52082 | 40162 ft | 525 kts | 27° |
| 2026-04-30 19:51 | 42.99100 | -2.47202 | 40158 ft | 525 kts | 27° |
| 2026-04-30 19:51 | 43.05463 | -2.42311 | 40156 ft | 524 kts | 27° |
| 2026-04-30 19:52 | 43.11825 | -2.37409 | 40155 ft | 525 kts | 27° |
| 2026-04-30 19:52 | 43.18190 | -2.32493 | 40157 ft | 525 kts | 27° |
| 2026-04-30 19:53 | 43.24559 | -2.27562 | 40160 ft | 525 kts | 27° |
| 2026-04-30 19:53 | 43.30924 | -2.22621 | 40159 ft | 526 kts | 27° |
| 2026-04-30 19:54 | 43.37282 | -2.17674 | 40163 ft | 525 kts | 27° |
| 2026-04-30 19:54 | 43.43629 | -2.12725 | 40159 ft | 524 kts | 27° |
| 2026-04-30 19:55 | 43.49960 | -2.07775 | 40162 ft | 523 kts | 27° |
| 2026-04-30 19:55 | 43.56281 | -2.02821 | 40157 ft | 523 kts | 27° |
| 2026-04-30 19:56 | 43.62602 | -1.97856 | 40163 ft | 523 kts | 27° |
| 2026-04-30 19:56 | 43.68921 | -1.92878 | 40160 ft | 523 kts | 27° |
| 2026-04-30 19:57 | 43.75245 | -1.87881 | 40159 ft | 524 kts | 27° |
| 2026-04-30 19:57 | 43.81579 | -1.82866 | 40159 ft | 524 kts | 27° |
| 2026-04-30 19:58 | 43.86832 | -1.78697 | 40156 ft | 523 kts | 27° |
| 2026-04-30 19:58 | 43.93144 | -1.73677 | 40158 ft | 522 kts | 27° |
| 2026-04-30 19:59 | 43.99445 | -1.68652 | 40160 ft | 522 kts | 27° |
| 2026-04-30 20:00 | 44.08903 | -1.61087 | 40151 ft | 523 kts | 27° |
| 2026-04-30 20:00 | 44.15195 | -1.56038 | 40152 ft | 522 kts | 27° |
| 2026-04-30 20:01 | 44.24601 | -1.48468 | 40155 ft | 520 kts | 27° |
| 2026-04-30 20:01 | 44.30860 | -1.43415 | 40156 ft | 520 kts | 27° |
| 2026-04-30 20:02 | 44.40248 | -1.35813 | 40166 ft | 520 kts | 27° |
| 2026-04-30 20:03 | 44.49624 | -1.28191 | 40150 ft | 520 kts | 28° |
| 2026-04-30 20:03 | 44.55877 | -1.23092 | 40158 ft | 520 kts | 28° |
| 2026-04-30 20:04 | 44.62076 | -1.18025 | 40161 ft | 519 kts | 28° |
| 2026-04-30 20:05 | 44.71402 | -1.10376 | 40157 ft | 517 kts | 28° |
| 2026-04-30 20:05 | 44.80655 | -1.02760 | 40161 ft | 517 kts | 28° |
| 2026-04-30 20:06 | 44.86847 | -0.97647 | 40161 ft | 516 kts | 28° |
| 2026-04-30 20:06 | 44.93044 | -0.92518 | 40166 ft | 516 kts | 28° |
| 2026-04-30 20:07 | 44.99234 | -0.87379 | 40167 ft | 516 kts | 28° |
| 2026-04-30 20:08 | 45.08508 | -0.79660 | 40162 ft | 516 kts | 28° |
| 2026-04-30 20:08 | 45.14686 | -0.74499 | 40161 ft | 516 kts | 28° |
| 2026-04-30 20:09 | 45.20868 | -0.69324 | 40161 ft | 516 kts | 29° |
| 2026-04-30 20:09 | 45.30155 | -0.61522 | 40165 ft | 518 kts | 29° |
| 2026-04-30 20:10 | 45.39409 | -0.53719 | 40164 ft | 518 kts | 29° |
| 2026-04-30 20:11 | 45.48701 | -0.45854 | 40165 ft | 517 kts | 29° |
| 2026-04-30 20:11 | 45.54876 | -0.40610 | 40168 ft | 516 kts | 30° |
| 2026-04-30 20:12 | 45.64090 | -0.32760 | 40166 ft | 514 kts | 30° |
| 2026-04-30 20:13 | 45.70466 | -0.28216 | 40165 ft | 513 kts | 23° |
| 2026-04-30 20:13 | 45.76974 | -0.24003 | 40169 ft | 513 kts | 24° |
| 2026-04-30 20:14 | 45.83464 | -0.19744 | 40171 ft | 513 kts | 24° |
| 2026-04-30 20:14 | 45.89951 | -0.15505 | 40173 ft | 512 kts | 24° |
| 2026-04-30 20:15 | 45.96425 | -0.11247 | 40178 ft | 511 kts | 24° |
| 2026-04-30 20:15 | 46.02895 | -0.06990 | 40175 ft | 512 kts | 24° |
| 2026-04-30 20:16 | 46.09370 | -0.02713 | 40171 ft | 513 kts | 24° |
| 2026-04-30 20:16 | 46.15823 | 0.01557 | 40169 ft | 514 kts | 24° |
| 2026-04-30 20:17 | 46.22316 | 0.05866 | 40173 ft | 513 kts | 24° |
| 2026-04-30 20:17 | 46.28797 | 0.10178 | 40171 ft | 513 kts | 24° |
| 2026-04-30 20:18 | 46.35288 | 0.14508 | 40171 ft | 514 kts | 24° |
| 2026-04-30 20:18 | 46.41779 | 0.18850 | 40168 ft | 514 kts | 24° |
| 2026-04-30 20:19 | 46.48271 | 0.23204 | 40169 ft | 514 kts | 24° |
| 2026-04-30 20:19 | 46.54763 | 0.27569 | 40169 ft | 514 kts | 24° |
| 2026-04-30 20:20 | 46.61494 | 0.30871 | 40173 ft | 512 kts | 11° |
| 2026-04-30 20:20 | 46.68472 | 0.32986 | 40164 ft | 513 kts | 11° |
| 2026-04-30 20:21 | 46.75453 | 0.35138 | 40167 ft | 513 kts | 11° |
| 2026-04-30 20:21 | 46.82429 | 0.37284 | 40162 ft | 512 kts | 11° |
| 2026-04-30 20:22 | 46.89406 | 0.39437 | 40164 ft | 513 kts | 11° |
| 2026-04-30 20:22 | 46.96388 | 0.41600 | 40160 ft | 513 kts | 11° |
| 2026-04-30 20:23 | 47.03381 | 0.43768 | 40161 ft | 514 kts | 11° |
| 2026-04-30 20:23 | 47.10458 | 0.44632 | 40182 ft | 512 kts | 352° |
| 2026-04-30 20:24 | 47.17509 | 0.42991 | 40150 ft | 514 kts | 350° |
| 2026-04-30 20:24 | 47.24569 | 0.41243 | 40153 ft | 514 kts | 350° |
| 2026-04-30 20:25 | 47.35157 | 0.38664 | 40144 ft | 514 kts | 350° |
| 2026-04-30 20:26 | 47.45702 | 0.36079 | 40145 ft | 515 kts | 350° |
| 2026-04-30 20:26 | 47.56304 | 0.33450 | 40148 ft | 515 kts | 350° |
| 2026-04-30 20:27 | 47.70405 | 0.29941 | 38587 ft | 515 kts | 350° |
| 2026-04-30 20:28 | 47.77509 | 0.28963 | 36811 ft | 514 kts | 6° |
| 2026-04-30 20:28 | 47.84356 | 0.31731 | 34988 ft | 512 kts | 28° |
| 2026-04-30 20:29 | 47.90297 | 0.37485 | 33378 ft | 505 kts | 36° |
| 2026-04-30 20:30 | 47.98746 | 0.46377 | 31374 ft | 487 kts | 36° |
| 2026-04-30 20:30 | 48.06926 | 0.54973 | 29350 ft | 472 kts | 36° |
| 2026-04-30 20:31 | 48.14861 | 0.63352 | 27236 ft | 459 kts | 36° |
| 2026-04-30 20:32 | 48.22583 | 0.71540 | 25242 ft | 448 kts | 37° |
| 2026-04-30 20:32 | 48.27625 | 0.76902 | 23973 ft | 441 kts | 38° |
| 2026-04-30 20:33 | 48.30117 | 0.79559 | 23269 ft | 437 kts | 38° |
| 2026-04-30 20:33 | 48.34656 | 0.85372 | 21869 ft | 422 kts | 54° |
| 2026-04-30 20:33 | 48.36256 | 0.89008 | 21210 ft | 413 kts | 65° |
| 2026-04-30 20:34 | 48.38899 | 0.96592 | 19869 ft | 406 kts | 65° |
| 2026-04-30 20:34 | 48.41473 | 1.04061 | 18600 ft | 398 kts | 65° |
| 2026-04-30 20:35 | 48.42747 | 1.07742 | 17901 ft | 395 kts | 65° |
| 2026-04-30 20:35 | 48.44005 | 1.11395 | 17210 ft | 391 kts | 65° |
| 2026-04-30 20:35 | 48.46478 | 1.18599 | 15843 ft | 384 kts | 65° |
| 2026-04-30 20:36 | 48.47697 | 1.22154 | 15184 ft | 380 kts | 65° |
| 2026-04-30 20:36 | 48.48905 | 1.25681 | 14528 ft | 377 kts | 65° |
| 2026-04-30 20:36 | 48.51272 | 1.32610 | 13207 ft | 371 kts | 65° |
| 2026-04-30 20:37 | 48.52435 | 1.35997 | 13143 ft | 359 kts | 64° |
| 2026-04-30 20:37 | 48.53974 | 1.39009 | 13164 ft | 373 kts | 43° |
| 2026-04-30 20:37 | 48.56159 | 1.41143 | 13156 ft | 370 kts | 28° |
| 2026-04-30 20:37 | 48.58452 | 1.42664 | 13143 ft | 350 kts | 24° |
| 2026-04-30 20:38 | 48.60669 | 1.43917 | 13130 ft | 330 kts | 22° |
| 2026-04-30 20:38 | 48.62775 | 1.45037 | 13130 ft | 314 kts | 21° |
| 2026-04-30 20:38 | 48.64830 | 1.46109 | 13141 ft | 315 kts | 21° |
| 2026-04-30 20:39 | 48.69379 | 1.48512 | 13172 ft | 378 kts | 21° |
| 2026-04-30 20:39 | 48.71830 | 1.49820 | 13166 ft | 364 kts | 21° |
| 2026-04-30 20:39 | 48.74150 | 1.51051 | 13161 ft | 343 kts | 21° |
| 2026-04-30 20:40 | 48.78411 | 1.53292 | 13001 ft | 308 kts | 22° |
| 2026-04-30 20:40 | 48.80296 | 1.54778 | 12464 ft | 305 kts | 37° |
| 2026-04-30 20:40 | 48.81997 | 1.56662 | 12025 ft | 301 kts | 40° |
| 2026-04-30 20:41 | 48.85245 | 1.60602 | 11142 ft | 296 kts | 41° |
| 2026-04-30 20:41 | 48.86830 | 1.62581 | 10694 ft | 294 kts | 41° |
| 2026-04-30 20:41 | 48.88404 | 1.64550 | 10274 ft | 292 kts | 41° |
| 2026-04-30 20:41 | 48.89946 | 1.66485 | 10170 ft | 284 kts | 41° |
| 2026-04-30 20:42 | 48.91457 | 1.68383 | 9599 ft | 290 kts | 41° |
| 2026-04-30 20:42 | 48.93011 | 1.70344 | 9078 ft | 290 kts | 41° |
| 2026-04-30 20:42 | 48.95349 | 1.74961 | 8073 ft | 284 kts | 68° |
| 2026-04-30 20:43 | 48.96097 | 1.77747 | 7589 ft | 284 kts | 70° |
| 2026-04-30 20:43 | 48.96790 | 1.80545 | 7130 ft | 282 kts | 71° |
| 2026-04-30 20:43 | 48.97468 | 1.83349 | 6654 ft | 282 kts | 71° |
| 2026-04-30 20:44 | 48.98805 | 1.88945 | 5694 ft | 279 kts | 71° |
| 2026-04-30 20:44 | 48.99464 | 1.91722 | 5220 ft | 279 kts | 71° |
| 2026-04-30 20:44 | 49.00777 | 1.97223 | 4372 ft | 273 kts | 72° |
| 2026-04-30 20:45 | 49.01662 | 2.02603 | 3968 ft | 258 kts | 94° |
| 2026-04-30 20:45 | 49.01377 | 2.05325 | 3965 ft | 259 kts | 108° |
| 2026-04-30 20:45 | 49.00852 | 2.07889 | 3964 ft | 246 kts | 110° |
| 2026-04-30 20:46 | 49.00478 | 2.15510 | 3950 ft | 243 kts | 88° |
| 2026-04-30 20:46 | 49.00615 | 2.18077 | 3950 ft | 243 kts | 88° |
| 2026-04-30 20:47 | 49.00892 | 2.23213 | 3953 ft | 243 kts | 88° |
| 2026-04-30 20:47 | 49.01031 | 2.25791 | 3813 ft | 247 kts | 88° |
| 2026-04-30 20:48 | 49.01263 | 2.30060 | 3288 ft | 240 kts | 89° |
| 2026-04-30 20:48 | 49.01400 | 2.32574 | 2956 ft | 236 kts | 89° |
| 2026-04-30 20:48 | 49.01534 | 2.35052 | 2657 ft | 233 kts | 89° |
| 2026-04-30 20:48 | 49.01667 | 2.37494 | 2344 ft | 229 kts | 89° |
| 2026-04-30 20:49 | 49.01790 | 2.39780 | 2063 ft | 223 kts | 89° |
| 2026-04-30 20:49 | 49.01916 | 2.42061 | 1747 ft | 206 kts | 89° |
| 2026-04-30 20:49 | 49.02019 | 2.44094 | 1490 ft | 176 kts | 90° |
| 2026-04-30 20:50 | 49.02193 | 2.47333 | 1105 ft | 144 kts | 88° |
| 2026-04-30 20:50 | 49.02273 | 2.48892 | 903 ft | 148 kts | 86° |
| 2026-04-30 20:50 | 49.02361 | 2.50418 | 686 ft | 144 kts | 83° |
| 2026-04-30 20:50 | 49.02448 | 2.51973 | 463 ft | 148 kts | 85° |
| 2026-04-30 20:51 | 49.02519 | 2.53460 | 365 ft | 132 kts | 84° |
| 2026-04-30 20:51 | 49.02602 | 2.54897 | 363 ft | 23 kts | 85° |
| 2026-04-30 20:51 | 49.02599 | 2.55122 | 364 ft | 19 kts | 100° |
| 2026-04-30 20:52 | 49.02564 | 2.55303 | 366 ft | 18 kts | 115° |
| 2026-04-30 20:52 | 49.02539 | 2.55388 | 367 ft | 0 kts | 115° |
| 2026-04-30 20:52 | 49.02515 | 2.55466 | 364 ft | 10 kts | 115° |
| 2026-04-30 20:53 | 49.02485 | 2.55563 | 361 ft | 7 kts | 121° |
| 2026-04-30 20:53 | 49.02443 | 2.55606 | 367 ft | 9 kts | 162° |
| 2026-04-30 20:53 | 49.02375 | 2.55620 | 362 ft | 12 kts | 175° |
| 2026-04-30 20:54 | 49.02167 | 2.55646 | 362 ft | 18 kts | 175° |
| 2026-04-30 20:54 | 49.02139 | 2.55649 | 363 ft | 3 kts | 175° |
| 2026-04-30 20:54 | 49.02115 | 2.55659 | 364 ft | 3 kts | 149° |
| 2026-04-30 20:55 | 49.02087 | 2.55725 | 367 ft | 6 kts | 113° |
| 2026-04-30 20:55 | 49.02079 | 2.55802 | 366 ft | 8 kts | 85° |
| 2026-04-30 20:55 | 49.02085 | 2.55911 | 362 ft | 13 kts | 85° |
| 2026-04-30 20:56 | 49.02070 | 2.56295 | 367 ft | 22 kts | 126° |
| 2026-04-30 20:56 | 49.02028 | 2.56528 | 365 ft | 25 kts | 85° |
| 2026-04-30 20:56 | 49.02050 | 2.56918 | 360 ft | 21 kts | 85° |
| 2026-04-30 20:57 | 49.02065 | 2.57162 | 366 ft | 25 kts | 86° |
| 2026-04-30 20:57 | 49.02076 | 2.57445 | 367 ft | 18 kts | 85° |
| 2026-04-30 20:57 | 49.02078 | 2.57481 | 366 ft | 4 kts | 85° |
| 2026-04-30 20:58 | 49.02089 | 2.57689 | 364 ft | 16 kts | 85° |
| 2026-04-30 20:58 | 49.02067 | 2.57879 | 365 ft | 21 kts | 114° |
| 2026-04-30 20:58 | 49.01962 | 2.58060 | 367 ft | 25 kts | 150° |
| 2026-04-30 20:58 | 49.01800 | 2.58128 | 363 ft | 17 kts | 175° |
| 2026-04-30 20:59 | 49.01480 | 2.58170 | 366 ft | 29 kts | 176° |
| 2026-04-30 20:59 | 49.01264 | 2.58195 | 365 ft | 34 kts | 175° |
| 2026-04-30 21:00 | 49.00921 | 2.58177 | 365 ft | 16 kts | 236° |
| 2026-04-30 21:00 | 49.00888 | 2.57759 | 365 ft | 25 kts | 266° |
| 2026-04-30 21:01 | 49.00860 | 2.57236 | 362 ft | 1 kts | 262° |
| 2026-04-30 21:01 | 49.00856 | 2.57219 | 364 ft | 1 kts | 238° |
| 2026-04-30 21:01 | 49.00834 | 2.57206 | 364 ft | 0 kts | 184° |
| 2026-04-30 21:02 | 49.00830 | 2.57207 | 365 ft | 2 kts | 175° |
| 2026-04-30 21:02 | 49.00794 | 2.57214 | 362 ft | 9 kts | 172° |
| 2026-04-30 21:02 | 49.00725 | 2.57222 | 360 ft | 9 kts | 188° |
| 2026-04-30 21:02 | 49.00684 | 2.57153 | 363 ft | 10 kts | 250° |
| 2026-04-30 21:03 | 49.00662 | 2.57037 | 364 ft | 13 kts | 259° |
| 2026-04-30 21:03 | 49.00651 | 2.56888 | 365 ft | 15 kts | 266° |
| 2026-04-30 21:03 | 49.00641 | 2.56713 | 364 ft | 18 kts | 264° |
| 2026-04-30 21:03 | 49.00629 | 2.56515 | 359 ft | 20 kts | 265° |
| 2026-04-30 21:04 | 49.00618 | 2.56305 | 359 ft | 10 kts | 266° |
| 2026-04-30 21:04 | 49.00618 | 2.56298 | 359 ft | 0 kts | 266° |
| 2026-04-30 21:04 | 49.00614 | 2.56215 | 359 ft | 10 kts | 265° |
| 2026-04-30 21:05 | 49.00604 | 2.56168 | 364 ft | 0 kts | 231° |
| 2026-04-30 21:05 | 49.00597 | 2.56166 | 363 ft | 1 kts | 194° |
| 2026-04-30 21:05 | 49.00561 | 2.56168 | 362 ft | 9 kts | 165° |
| 2026-04-30 21:05 | 49.00549 | 2.56173 | 364 ft | 2 kts | 165° |
| 2026-04-30 21:06 | 49.00534 | 2.56178 | 363 ft | 3 kts | 166° |
| 2026-04-30 21:06 | 49.00527 | 2.56181 | 363 ft | 0 kts | 166° |